Time;durP1;ratioP1;P1;durP2;ratioP2;P2;SDS_P1;SDS_P2;PMS_P1;PMS_P2;Temp;Humidity;BMP_temperature;BMP_pressure;BME280_temperature;BME280_humidity;BME280_pressure;Samples;Min_cycle;Max_cycle;Signal;HPM_P1;HPM_P2
2023/05/22 00:00:35;;;;;;;19.30;14.63;;;18.10;99.90;;;;;;5094267;28;20162;-69
2023/05/22 00:03:02;;;;;;;16.70;13.30;;;18.10;99.90;;;;;;5094194;28;20412;-69
2023/05/22 00:05:29;;;;;;;18.00;14.63;;;18.00;99.90;;;;;;5094290;28;20399;-68
2023/05/22 00:07:54;;;;;;;18.43;15.50;;;18.00;99.90;;;;;;5093757;28;20476;-68
2023/05/22 00:10:20;;;;;;;20.00;15.40;;;18.00;99.90;;;;;;5094082;28;20399;-68
2023/05/22 00:12:46;;;;;;;19.10;14.80;;;18.00;99.90;;;;;;5093649;28;20200;-70
2023/05/22 00:15:11;;;;;;;22.30;14.17;;;17.90;99.90;;;;;;5093208;28;20193;-68
2023/05/22 00:17:37;;;;;;;20.67;14.47;;;17.90;99.90;;;;;;5093495;28;20197;-68
2023/05/22 00:20:05;;;;;;;20.17;15.27;;;17.90;99.90;;;;;;5093797;28;20166;-68
2023/05/22 00:22:34;;;;;;;20.27;14.50;;;17.90;99.90;;;;;;5093817;28;20515;-68
2023/05/22 00:25:03;;;;;;;18.60;15.77;;;17.90;99.90;;;;;;5093735;28;20403;-67
2023/05/22 00:27:28;;;;;;;25.63;15.03;;;17.90;99.90;;;;;;5093302;28;20434;-68
2023/05/22 00:29:54;;;;;;;21.67;15.47;;;17.80;99.90;;;;;;5093861;28;20780;-68
2023/05/22 00:32:19;;;;;;;21.70;15.60;;;17.80;99.90;;;;;;5093591;28;20195;-68
2023/05/22 00:34:45;;;;;;;18.90;14.60;;;17.80;99.90;;;;;;5093524;28;20201;-68
2023/05/22 00:37:10;;;;;;;22.10;15.17;;;17.80;99.90;;;;;;5093639;28;20213;-68
2023/05/22 00:39:36;;;;;;;21.80;15.57;;;17.80;99.90;;;;;;5092607;28;20174;-68
2023/05/22 00:42:02;;;;;;;21.30;15.90;;;17.80;99.90;;;;;;5093369;28;20541;-68
2023/05/22 00:44:28;;;;;;;20.70;15.93;;;17.80;99.90;;;;;;5093428;28;20412;-69
2023/05/22 00:46:54;;;;;;;20.37;15.10;;;17.80;99.90;;;;;;5093105;28;20246;-68
2023/05/22 00:49:19;;;;;;;20.53;14.70;;;17.80;99.90;;;;;;5093304;28;20411;-68
2023/05/22 00:51:45;;;;;;;23.27;17.60;;;17.80;99.90;;;;;;5093326;28;20161;-68
2023/05/22 00:54:12;;;;;;;25.10;17.40;;;17.80;99.90;;;;;;5093134;28;20206;-68
2023/05/22 00:56:38;;;;;;;21.50;15.03;;;17.80;99.90;;;;;;5092988;28;20170;-69
2023/05/22 00:59:03;;;;;;;22.07;15.77;;;17.80;99.90;;;;;;5092894;28;20740;-68
2023/05/22 01:01:32;;;;;;;22.53;16.30;;;17.70;99.90;;;;;;5093073;28;20197;-68
2023/05/22 01:04:00;;;;;;;26.27;18.27;;;17.70;99.90;;;;;;5093078;28;20169;-69
2023/05/22 01:06:26;;;;;;;27.87;17.47;;;17.70;99.90;;;;;;5092871;28;20825;-68
2023/05/22 01:08:52;;;;;;;21.47;15.37;;;17.70;99.90;;;;;;5092637;28;20542;-68
2023/05/22 01:11:27;;;;;;;23.90;16.60;;;17.70;99.90;;;;;;5092757;28;20407;-68
2023/05/22 01:14:09;;;;;;;30.93;17.43;;;17.70;99.90;;;;;;5092780;28;20203;-69
2023/05/22 01:17:15;;;;;;;24.73;17.07;;;17.70;99.90;;;;;;5092767;28;20403;-68
2023/05/22 01:20:04;;;;;;;21.13;16.53;;;17.70;99.90;;;;;;5092737;28;20948;-69
2023/05/22 01:22:59;;;;;;;20.80;15.93;;;17.70;99.90;;;;;;5092751;28;20400;-68
2023/05/22 01:25:27;;;;;;;21.43;16.53;;;17.60;99.90;;;;;;5092693;28;20991;-68
2023/05/22 01:28:17;;;;;;;28.00;17.10;;;17.60;99.90;;;;;;5092098;28;20423;-68
2023/05/22 01:30:47;;;;;;;19.93;15.67;;;17.60;99.90;;;;;;5092714;28;20415;-68
2023/05/22 01:33:17;;;;;;;21.47;15.17;;;17.60;99.90;;;;;;5092426;28;20451;-67
2023/05/22 01:35:50;;;;;;;25.33;18.07;;;17.50;99.90;;;;;;5092500;28;20404;-67
2023/05/22 01:38:17;;;;;;;20.73;15.50;;;17.50;99.90;;;;;;5092080;28;20429;-67
2023/05/22 01:40:44;;;;;;;21.00;16.40;;;17.50;99.90;;;;;;5092351;28;20403;-67
2023/05/22 01:43:11;;;;;;;21.80;15.00;;;17.50;99.90;;;;;;5091999;28;20404;-68
2023/05/22 01:45:36;;;;;;;22.57;17.47;;;17.50;99.90;;;;;;5092361;28;20838;-67
2023/05/22 01:48:02;;;;;;;22.40;17.27;;;17.50;99.90;;;;;;5091886;28;20431;-68
2023/05/22 01:50:27;;;;;;;23.03;18.10;;;17.50;99.90;;;;;;5091934;28;20252;-67
2023/05/22 01:53:36;;;;;;;23.80;17.93;;;17.50;99.90;;;;;;5092216;28;20169;-67
2023/05/22 01:56:08;;;;;;;21.53;15.73;;;17.50;99.90;;;;;;4990406;28;20553;-67
2023/05/22 01:58:49;;;;;;;26.53;20.00;;;17.40;99.90;;;;;;4990091;28;20464;-68
2023/05/22 02:01:18;;;;;;;26.50;19.17;;;17.40;99.90;;;;;;5051841;28;20942;-67
2023/05/22 02:03:45;;;;;;;25.27;19.40;;;17.40;99.90;;;;;;5092128;28;20419;-67
2023/05/22 02:06:13;;;;;;;27.20;18.00;;;17.40;99.90;;;;;;5092183;28;20396;-67
2023/05/22 02:08:41;;;;;;;28.97;19.50;;;17.40;99.90;;;;;;5091684;28;20494;-67
2023/05/22 02:11:08;;;;;;;23.17;16.57;;;17.40;99.90;;;;;;5091986;28;20764;-67
2023/05/22 02:13:34;;;;;;;26.27;17.63;;;17.40;99.90;;;;;;5091661;28;20455;-67
2023/05/22 02:16:02;;;;;;;25.73;17.73;;;17.40;99.90;;;;;;5092032;28;20396;-68
2023/05/22 02:18:29;;;;;;;25.70;19.03;;;17.40;99.90;;;;;;5091569;28;20453;-69
2023/05/22 02:20:59;;;;;;;25.10;16.30;;;17.40;99.90;;;;;;5091976;28;20437;-68
2023/05/22 02:23:28;;;;;;;23.27;17.30;;;17.40;99.90;;;;;;5091941;28;20396;-68
2023/05/22 02:25:54;;;;;;;26.60;17.67;;;17.40;99.90;;;;;;5091915;28;20395;-68
2023/05/22 02:28:20;;;;;;;29.23;19.47;;;17.40;99.90;;;;;;5091420;28;20429;-68
2023/05/22 02:30:45;;;;;;;27.20;18.70;;;17.30;99.90;;;;;;5091899;28;20408;-68
2023/05/22 02:33:11;;;;;;;24.80;18.13;;;17.40;99.90;;;;;;5091863;28;20170;-68
2023/05/22 02:35:36;;;;;;;29.70;20.50;;;17.30;99.90;;;;;;5091833;28;20212;-68
2023/05/22 02:38:02;;;;;;;30.23;20.40;;;17.30;99.90;;;;;;5091452;28;20185;-68
2023/05/22 02:40:28;;;;;;;29.00;21.90;;;17.30;99.90;;;;;;5091733;28;20157;-68
2023/05/22 02:42:53;;;;;;;27.27;19.10;;;17.30;99.90;;;;;;5073502;28;20230;-68
2023/05/22 02:45:19;;;;;;;29.30;18.03;;;17.30;99.90;;;;;;5091821;28;20173;-68
2023/05/22 02:47:44;;;;;;;26.37;17.77;;;17.30;99.90;;;;;;5091391;28;20265;-68
2023/05/22 02:50:10;;;;;;;25.23;17.67;;;17.30;99.90;;;;;;5091733;28;20681;-68
2023/05/22 02:52:35;;;;;;;31.10;19.00;;;17.30;99.90;;;;;;5091655;28;20173;-68
2023/05/22 02:55:03;;;;;;;24.73;19.87;;;17.30;99.90;;;;;;5091541;28;20193;-68
2023/05/22 02:57:28;;;;;;;25.77;17.13;;;17.30;99.90;;;;;;5091257;28;20722;-68
2023/05/22 02:59:54;;;;;;;30.70;17.83;;;17.30;99.90;;;;;;5091533;28;20554;-68
2023/05/22 03:02:19;;;;;;;22.77;16.77;;;17.30;99.90;;;;;;5091755;28;20635;-68
2023/05/22 03:04:45;;;;;;;21.47;16.27;;;17.30;99.90;;;;;;5095386;28;20564;-68
2023/05/22 03:07:11;;;;;;;26.33;17.23;;;17.20;99.90;;;;;;5094947;28;20796;-68
2023/05/22 03:09:36;;;;;;;21.83;15.10;;;17.20;99.90;;;;;;5095238;28;20173;-68
2023/05/22 03:12:03;;;;;;;23.83;14.77;;;17.20;99.90;;;;;;5095236;28;20162;-68
2023/05/22 03:14:29;;;;;;;18.77;15.40;;;17.20;99.90;;;;;;5095356;28;20193;-68
2023/05/22 03:16:55;;;;;;;23.63;15.20;;;17.20;99.90;;;;;;5094835;28;20423;-68
2023/05/22 03:19:21;;;;;;;19.47;14.50;;;17.10;99.90;;;;;;5095216;28;20158;-68
2023/05/22 03:21:48;;;;;;;22.13;15.40;;;17.10;99.90;;;;;;5095018;28;20395;-68
2023/05/22 03:24:14;;;;;;;22.67;15.70;;;17.10;99.90;;;;;;5095428;28;20895;-68
2023/05/22 03:26:40;;;;;;;19.80;13.20;;;17.10;99.90;;;;;;5094851;28;20415;-68
2023/05/22 03:29:06;;;;;;;18.87;14.40;;;17.10;99.90;;;;;;5094764;28;20189;-68
2023/05/22 03:31:32;;;;;;;20.30;13.30;;;17.10;99.90;;;;;;5094844;28;20432;-68
2023/05/22 03:33:58;;;;;;;15.40;12.77;;;17.10;99.90;;;;;;5094874;28;20235;-69
2023/05/22 03:36:24;;;;;;;19.13;12.80;;;17.00;99.90;;;;;;5094847;28;20403;-69
2023/05/22 03:38:50;;;;;;;18.40;12.87;;;17.00;99.90;;;;;;5094465;28;20268;-68
2023/05/22 03:41:16;;;;;;;20.13;14.10;;;17.00;99.90;;;;;;5094646;28;20630;-68
2023/05/22 03:43:42;;;;;;;20.30;13.70;;;16.90;99.90;;;;;;5094700;28;20411;-68
2023/05/22 03:46:09;;;;;;;20.60;13.33;;;16.90;99.90;;;;;;5094691;28;20561;-69
2023/05/22 03:48:35;;;;;;;18.37;16.20;;;16.80;99.90;;;;;;5094236;28;20188;-69
2023/05/22 03:51:00;;;;;;;20.23;13.60;;;16.90;99.90;;;;;;5094514;28;20395;-69
2023/05/22 03:53:26;;;;;;;18.20;13.90;;;16.80;99.90;;;;;;5094465;28;20169;-68
2023/05/22 03:55:52;;;;;;;20.93;15.40;;;16.80;99.90;;;;;;5094433;28;20215;-68
2023/05/22 03:58:17;;;;;;;21.33;15.27;;;16.70;99.90;;;;;;5094127;28;20190;-68
2023/05/22 04:00:43;;;;;;;19.43;14.20;;;16.70;99.90;;;;;;5094258;28;20686;-68
2023/05/22 04:03:11;;;;;;;21.87;16.80;;;16.70;99.90;;;;;;5094163;28;20490;-68
2023/05/22 04:05:38;;;;;;;20.63;15.40;;;16.70;99.90;;;;;;5094180;28;20181;-68
2023/05/22 04:08:04;;;;;;;22.80;16.57;;;16.70;99.90;;;;;;5093755;28;20518;-68
2023/05/22 04:10:29;;;;;;;26.63;16.20;;;16.70;99.90;;;;;;5094012;28;20423;-69
2023/05/22 04:12:55;;;;;;;21.23;15.90;;;16.60;99.90;;;;;;5094019;28;20984;-69
2023/05/22 04:15:20;;;;;;;21.17;17.30;;;16.60;99.90;;;;;;5093966;28;20166;-69
2023/05/22 04:17:48;;;;;;;25.90;18.33;;;16.60;99.90;;;;;;5093243;28;20189;-68
2023/05/22 04:20:14;;;;;;;26.00;18.57;;;16.60;99.90;;;;;;5093671;28;20166;-69
2023/05/22 04:22:40;;;;;;;21.03;16.90;;;16.60;99.90;;;;;;5093833;28;20481;-68
2023/05/22 04:25:06;;;;;;;26.40;19.53;;;16.50;99.90;;;;;;5093711;28;20204;-69
2023/05/22 04:27:33;;;;;;;26.20;19.00;;;16.60;99.90;;;;;;5093528;28;20522;-69
2023/05/22 04:29:59;;;;;;;20.87;16.70;;;16.50;99.90;;;;;;5093702;28;20404;-69
2023/05/22 04:32:25;;;;;;;21.23;16.80;;;16.50;99.90;;;;;;5093512;28;20411;-68
2023/05/22 04:34:51;;;;;;;20.63;16.27;;;16.60;99.90;;;;;;5093606;28;20407;-69
2023/05/22 04:37:19;;;;;;;22.13;17.23;;;16.50;99.90;;;;;;5093146;28;20432;-69
2023/05/22 04:39:45;;;;;;;34.20;18.37;;;16.60;99.90;;;;;;5093444;28;20415;-68
2023/05/22 04:42:14;;;;;;;21.23;18.03;;;16.60;99.90;;;;;;5093638;28;20404;-69
2023/05/22 04:44:41;;;;;;;22.20;19.10;;;16.60;99.90;;;;;;5093410;28;20827;-69
2023/05/22 04:47:10;;;;;;;23.00;17.00;;;16.60;99.90;;;;;;5093176;28;20420;-68
2023/05/22 04:49:37;;;;;;;23.67;17.83;;;16.60;99.90;;;;;;5093403;28;20416;-68
2023/05/22 04:52:05;;;;;;;28.33;19.10;;;16.60;99.90;;;;;;5093351;28;20607;-69
2023/05/22 04:54:31;;;;;;;22.63;16.80;;;16.70;99.90;;;;;;5093013;28;20404;-69
2023/05/22 04:56:57;;;;;;;25.77;17.60;;;16.70;99.90;;;;;;5092981;28;20585;-69
2023/05/22 04:59:25;;;;;;;19.60;15.83;;;16.70;99.90;;;;;;5093182;28;20176;-69
2023/05/22 05:01:51;;;;;;;25.97;19.07;;;16.70;99.90;;;;;;5093221;28;20716;-68
2023/05/22 05:04:17;;;;;;;26.67;18.67;;;16.70;99.90;;;;;;5092949;28;20530;-68
2023/05/22 05:06:43;;;;;;;24.93;19.20;;;16.80;99.90;;;;;;5092800;28;20403;-69
2023/05/22 05:09:08;;;;;;;25.93;18.17;;;16.80;99.90;;;;;;5092781;28;20169;-69
2023/05/22 05:11:34;;;;;;;27.40;16.70;;;16.80;99.90;;;;;;5093081;28;20410;-69
2023/05/22 05:14:00;;;;;;;30.60;17.07;;;16.80;99.90;;;;;;5092773;28;20646;-68
2023/05/22 05:16:26;;;;;;;23.93;17.53;;;16.80;99.90;;;;;;5093163;28;20478;-69
2023/05/22 05:18:52;;;;;;;29.47;19.23;;;16.80;99.90;;;;;;5092606;28;20173;-69
2023/05/22 05:21:18;;;;;;;22.90;15.90;;;16.90;99.90;;;;;;5093062;28;20626;-68
2023/05/22 05:23:44;;;;;;;29.63;18.13;;;16.90;99.90;;;;;;5092727;28;20546;-69
2023/05/22 05:26:09;;;;;;;25.53;17.60;;;17.00;99.90;;;;;;5092465;28;20927;-69
2023/05/22 05:28:36;;;;;;;24.70;18.17;;;17.10;99.90;;;;;;5092365;28;20590;-69
2023/05/22 05:31:02;;;;;;;33.60;19.30;;;17.20;99.90;;;;;;5092618;28;20165;-69
2023/05/22 05:33:27;;;;;;;26.97;17.03;;;17.40;99.90;;;;;;5092595;28;20465;-69
2023/05/22 05:35:53;;;;;;;26.00;19.33;;;17.60;99.90;;;;;;5092449;28;20177;-69
2023/05/22 05:38:18;;;;;;;26.63;19.13;;;17.90;99.90;;;;;;5092181;28;20197;-69
2023/05/22 05:40:44;;;;;;;23.53;17.20;;;18.00;99.90;;;;;;5092397;28;20635;-69
2023/05/22 05:43:12;;;;;;;25.37;17.57;;;18.30;99.90;;;;;;5092693;28;20196;-69
2023/05/22 05:45:38;;;;;;;23.13;18.90;;;18.70;99.90;;;;;;5092443;28;20407;-69
2023/05/22 05:48:04;;;;;;;30.43;18.40;;;18.90;99.90;;;;;;5092080;28;20411;-69
2023/05/22 05:50:29;;;;;;;22.20;17.63;;;19.30;99.90;;;;;;5092241;28;20188;-69
2023/05/22 05:52:55;;;;;;;22.40;16.67;;;19.60;99.90;;;;;;5092296;28;20161;-69
2023/05/22 05:55:20;;;;;;;25.83;18.17;;;19.90;99.90;;;;;;5092195;28;20169;-68
2023/05/22 05:57:46;;;;;;;27.40;15.87;;;20.10;99.90;;;;;;5091904;28;20189;-69
2023/05/22 06:00:12;;;;;;;26.63;15.97;;;20.30;99.90;;;;;;5092273;28;20165;-69
2023/05/22 06:02:37;;;;;;;24.40;17.97;;;20.60;99.90;;;;;;5092119;28;20162;-69
2023/05/22 06:05:04;;;;;;;26.30;15.87;;;20.80;99.90;;;;;;5092015;28;20458;-68
2023/05/22 06:07:30;;;;;;;20.17;13.87;;;20.90;99.90;;;;;;5091755;28;20268;-69
2023/05/22 06:09:57;;;;;;;17.50;13.90;;;21.10;99.90;;;;;;5092110;28;20416;-69
2023/05/22 06:12:22;;;;;;;19.93;14.17;;;21.10;99.90;;;;;;5092034;28;20400;-69
2023/05/22 06:14:48;;;;;;;21.40;16.13;;;21.00;99.90;;;;;;5091904;28;20480;-68
2023/05/22 06:17:14;;;;;;;21.17;12.93;;;20.90;99.90;;;;;;5091718;28;20189;-69
2023/05/22 06:19:39;;;;;;;16.50;14.47;;;20.90;99.90;;;;;;5091926;28;20356;-69
2023/05/22 06:22:05;;;;;;;21.20;15.43;;;21.00;99.90;;;;;;5092210;28;20496;-68
2023/05/22 06:24:31;;;;;;;19.67;16.07;;;21.10;99.90;;;;;;5091958;28;20666;-69
2023/05/22 06:26:57;;;;;;;23.23;14.90;;;21.30;99.90;;;;;;5091509;28;20193;-69
2023/05/22 06:29:22;;;;;;;26.53;15.70;;;21.40;99.90;;;;;;5091982;28;20165;-69
2023/05/22 06:31:48;;;;;;;21.53;15.40;;;21.70;99.90;;;;;;5091882;28;20193;-69
2023/05/22 06:34:13;;;;;;;17.90;13.23;;;22.20;99.90;;;;;;5091766;28;20173;-68
2023/05/22 06:36:39;;;;;;;17.43;13.13;;;22.70;99.90;;;;;;5091646;28;20168;-69
2023/05/22 06:39:06;;;;;;;19.63;13.80;;;23.30;99.90;;;;;;5094566;28;20176;-70
2023/05/22 06:41:32;;;;;;;16.60;13.37;;;24.20;99.90;;;;;;5095994;28;20165;-69
2023/05/22 06:43:58;;;;;;;19.33;13.77;;;25.00;99.90;;;;;;5095618;28;20779;-69
2023/05/22 06:46:23;;;;;;;17.13;13.83;;;25.70;99.90;;;;;;5095827;28;20403;-69
2023/05/22 06:48:49;;;;;;;25.30;15.97;;;26.30;99.90;;;;;;5095353;28;20182;-69
2023/05/22 06:51:15;;;;;;;16.60;13.73;;;27.00;99.90;;;;;;5095751;28;20627;-69
2023/05/22 06:53:40;;;;;;;18.17;13.10;;;27.60;99.90;;;;;;5095705;28;20196;-70
2023/05/22 06:56:06;;;;;;;17.20;13.80;;;28.30;99.90;;;;;;5095747;28;20718;-69
2023/05/22 06:58:31;;;;;;;17.83;13.13;;;28.70;99.90;;;;;;5095131;28;20208;-69
2023/05/22 07:00:57;;;;;;;18.07;13.90;;;28.70;99.90;;;;;;5095426;28;20166;-68
2023/05/22 07:03:22;;;;;;;17.00;14.87;;;28.50;99.90;;;;;;5095252;28;20242;-69
2023/05/22 07:05:48;;;;;;;18.10;14.10;;;28.10;99.90;;;;;;5095325;28;20639;-69
2023/05/22 07:08:14;;;;;;;17.53;15.00;;;27.80;99.90;;;;;;5095080;28;20226;-68
2023/05/22 07:10:39;;;;;;;17.07;13.70;;;27.40;99.90;;;;;;5095327;28;20168;-69
2023/05/22 07:13:05;;;;;;;18.03;14.70;;;27.20;99.90;;;;;;5095114;28;20184;-70
2023/05/22 07:15:30;;;;;;;19.53;16.10;;;27.30;99.90;;;;;;5095251;28;20166;-68
2023/05/22 07:17:56;;;;;;;19.37;15.60;;;27.60;99.90;;;;;;5094702;28;20272;-68
2023/05/22 07:20:21;;;;;;;18.97;16.83;;;28.10;99.90;;;;;;5095077;28;20172;-69
2023/05/22 07:22:47;;;;;;;22.50;15.60;;;28.20;99.90;;;;;;5095123;28;20166;-70
2023/05/22 07:25:13;;;;;;;19.33;13.73;;;28.10;99.40;;;;;;5094962;28;20197;-70
2023/05/22 07:27:38;;;;;;;19.40;14.77;;;27.90;99.20;;;;;;5094873;28;20561;-70
2023/05/22 07:30:04;;;;;;;19.50;15.77;;;27.80;99.90;;;;;;5094894;28;20162;-69
2023/05/22 07:32:30;;;;;;;17.83;13.30;;;27.60;99.90;;;;;;5094742;28;20193;-69
2023/05/22 07:34:55;;;;;;;16.73;12.97;;;27.90;99.90;;;;;;5094781;28;20879;-69
2023/05/22 07:37:21;;;;;;;17.57;14.87;;;28.10;99.90;;;;;;5094620;28;20189;-69
2023/05/22 07:39:46;;;;;;;19.93;14.50;;;28.30;99.90;;;;;;5094798;28;20627;-69
2023/05/22 07:42:13;;;;;;;18.73;13.13;;;29.00;99.00;;;;;;5094673;28;20209;-69
2023/05/22 07:44:39;;;;;;;15.63;11.90;;;30.10;93.70;;;;;;5094634;28;20246;-70
2023/05/22 07:47:05;;;;;;;12.53;11.07;;;31.20;85.80;;;;;;5094417;28;20420;-69
2023/05/22 07:49:31;;;;;;;17.20;12.50;;;31.80;76.90;;;;;;5094056;28;20249;-70
2023/05/22 07:51:56;;;;;;;17.50;13.27;;;32.20;71.30;;;;;;5094565;28;20166;-69
2023/05/22 07:54:22;;;;;;;15.00;12.37;;;32.50;65.60;;;;;;5094565;28;20414;-67
2023/05/22 07:56:48;;;;;;;14.23;12.63;;;32.50;62.20;;;;;;5094333;28;20190;-67
2023/05/22 07:59:14;;;;;;;14.67;11.17;;;32.60;62.00;;;;;;5094267;28;20166;-67
2023/05/22 08:01:43;;;;;;;17.10;12.60;;;33.30;60.00;;;;;;5094322;28;20486;-68
2023/05/22 08:04:08;;;;;;;13.40;11.90;;;33.70;57.70;;;;;;5094307;28;20457;-68
2023/05/22 08:06:34;;;;;;;11.93;9.87;;;34.40;56.20;;;;;;5094201;28;20479;-67
2023/05/22 08:09:01;;;;;;;13.80;10.80;;;34.50;54.50;;;;;;5093980;28;20177;-67
2023/05/22 08:11:27;;;;;;;16.40;13.60;;;35.00;53.20;;;;;;5094130;28;20154;-70
2023/05/22 08:13:52;;;;;;;19.30;15.27;;;35.50;50.70;;;;;;5094091;28;20423;-69
2023/05/22 08:16:18;;;;;;;11.43;9.90;;;35.80;49.30;;;;;;5093974;28;20506;-67
2023/05/22 08:18:43;;;;;;;12.73;11.40;;;36.10;49.00;;;;;;5093647;28;20186;-68
2023/05/22 08:21:09;;;;;;;16.17;12.87;;;35.40;47.20;;;;;;5093985;28;20166;-68
2023/05/22 08:23:35;;;;;;;14.97;11.73;;;34.70;48.20;;;;;;5093971;28;20690;-67
2023/05/22 08:26:01;;;;;;;18.50;12.70;;;34.00;48.90;;;;;;5093882;28;20162;-70
2023/05/22 08:28:26;;;;;;;17.33;12.53;;;33.30;50.00;;;;;;5093587;28;20477;-70
2023/05/22 08:30:53;;;;;;;16.83;14.70;;;32.60;50.90;;;;;;5093723;28;20157;-70
2023/05/22 08:33:18;;;;;;;17.30;13.77;;;31.90;51.80;;;;;;5093721;28;20168;-70
2023/05/22 08:35:44;;;;;;;22.27;14.50;;;31.30;52.70;;;;;;5093769;28;20396;-70
2023/05/22 08:38:10;;;;;;;19.13;13.90;;;30.40;53.60;;;;;;5093284;28;20260;-70
2023/05/22 08:40:37;;;;;;;25.37;15.23;;;29.70;55.40;;;;;;5093666;28;20206;-69
2023/05/22 08:43:04;;;;;;;17.70;13.70;;;29.20;57.30;;;;;;5093552;28;20730;-70
2023/05/22 08:45:32;;;;;;;18.87;15.77;;;28.60;58.60;;;;;;5093358;28;20451;-69
2023/05/22 08:47:58;;;;;;;28.77;19.20;;;28.10;60.90;;;;;;5093081;28;20432;-69
2023/05/22 08:50:25;;;;;;;19.30;14.90;;;27.60;64.60;;;;;;5093418;28;20412;-69
2023/05/22 08:52:53;;;;;;;19.40;15.30;;;27.20;69.20;;;;;;5093436;28;20387;-69
2023/05/22 08:55:18;;;;;;;19.63;16.10;;;26.80;75.50;;;;;;5093303;28;20491;-69
2023/05/22 08:57:48;;;;;;;26.13;16.87;;;26.50;85.80;;;;;;5092846;28;20451;-69
2023/05/22 09:00:15;;;;;;;24.03;15.90;;;26.20;93.40;;;;;;5092259;28;20169;-70
2023/05/22 09:02:41;;;;;;;21.73;15.50;;;25.80;96.50;;;;;;5093042;28;20391;-70
2023/05/22 09:05:08;;;;;;;15.60;12.23;;;25.60;99.90;;;;;;5093118;28;20469;-70
2023/05/22 09:07:34;;;;;;;15.13;12.60;;;25.40;99.90;;;;;;5092832;28;20196;-69
2023/05/22 09:10:00;;;;;;;20.57;14.37;;;25.30;99.90;;;;;;5093059;28;20483;-69
2023/05/22 09:12:28;;;;;;;29.73;18.50;;;25.30;99.90;;;;;;5092698;28;20491;-70
2023/05/22 09:14:54;;;;;;;28.57;21.57;;;25.20;99.90;;;;;;5092924;28;20783;-69
2023/05/22 09:17:20;;;;;;;26.90;18.53;;;25.20;99.90;;;;;;5092431;28;20785;-69
2023/05/22 09:19:46;;;;;;;20.37;16.07;;;25.30;99.90;;;;;;5092789;28;20395;-69
2023/05/22 09:22:12;;;;;;;22.10;16.03;;;25.40;99.90;;;;;;5092850;28;20196;-69
2023/05/22 09:24:41;;;;;;;19.73;15.13;;;25.50;99.90;;;;;;5092694;28;20522;-69
2023/05/22 09:27:06;;;;;;;23.50;16.20;;;25.60;99.90;;;;;;5092296;28;20451;-69
2023/05/22 09:29:47;;;;;;;18.90;13.90;;;25.50;99.90;;;;;;5092660;28;20638;-70
2023/05/22 09:32:13;;;;;;;19.60;14.80;;;25.50;99.90;;;;;;5092587;28;20663;-69
2023/05/22 09:34:39;;;;;;;24.10;15.27;;;25.40;99.90;;;;;;5092642;28;20400;-70
2023/05/22 09:37:05;;;;;;;24.57;16.90;;;25.50;99.90;;;;;;5092249;28;20480;-69
2023/05/22 09:40:04;;;;;;;18.47;14.00;;;25.50;99.90;;;;;;5092436;28;20692;-70
2023/05/22 09:42:32;;;;;;;24.27;15.10;;;25.60;99.90;;;;;;5074208;28;20177;-69
2023/05/22 09:45:05;;;;;;;21.57;16.10;;;25.60;99.90;;;;;;5092361;28;20478;-70
2023/05/22 09:47:32;;;;;;;22.47;16.77;;;25.50;99.90;;;;;;5092358;28;20430;-69
2023/05/22 09:49:59;;;;;;;22.20;16.80;;;25.50;99.90;;;;;;5092333;28;20400;-69
2023/05/22 09:52:27;;;;;;;25.77;19.57;;;25.50;99.90;;;;;;5092643;28;20476;-68
2023/05/22 09:54:55;;;;;;;25.33;19.40;;;25.40;99.90;;;;;;5092182;28;20486;-69
2023/05/22 09:57:25;;;;;;;24.33;17.87;;;25.30;99.90;;;;;;5091901;28;20438;-69
2023/05/22 09:59:53;;;;;;;27.33;17.33;;;25.20;99.90;;;;;;5092136;28;20410;-69
2023/05/22 10:02:22;;;;;;;26.20;19.17;;;25.20;99.90;;;;;;5092226;28;20857;-69
2023/05/22 10:04:51;;;;;;;26.70;20.70;;;25.20;99.90;;;;;;5092144;28;20812;-69
2023/05/22 10:07:21;;;;;;;25.73;16.57;;;25.20;99.90;;;;;;5091750;28;20420;-69
2023/05/22 10:09:51;;;;;;;26.83;19.80;;;25.40;99.90;;;;;;5092095;28;20445;-69
2023/05/22 10:12:20;;;;;;;26.47;17.93;;;25.50;99.90;;;;;;5091868;28;20403;-69
2023/05/22 10:14:46;;;;;;;30.60;19.83;;;25.60;99.90;;;;;;5091880;28;20423;-69
2023/05/22 10:17:13;;;;;;;32.20;17.73;;;25.60;99.90;;;;;;5091641;28;20429;-69
2023/05/22 10:19:40;;;;;;;23.70;19.00;;;25.70;99.90;;;;;;5092148;28;20765;-70
2023/05/22 10:22:06;;;;;;;26.23;17.80;;;25.70;99.90;;;;;;5091981;28;20407;-68
2023/05/22 10:24:32;;;;;;;22.67;18.27;;;25.70;99.90;;;;;;5091945;28;20450;-68
2023/05/22 10:26:58;;;;;;;26.83;17.90;;;25.70;99.90;;;;;;5091704;28;20178;-69
2023/05/22 10:29:30;;;;;;;28.10;17.47;;;25.70;99.90;;;;;;5091922;28;20403;-70
2023/05/22 10:32:08;;;;;;;25.13;16.50;;;25.60;99.90;;;;;;5091928;28;20728;-70
2023/05/22 10:34:36;;;;;;;26.10;17.60;;;25.60;99.90;;;;;;5091851;28;20399;-70
2023/05/22 10:37:23;;;;;;;21.03;16.17;;;25.60;99.90;;;;;;5091470;28;20434;-70
2023/05/22 10:40:10;;;;;;;29.23;19.60;;;25.60;99.90;;;;;;5091731;28;20392;-68
2023/05/22 10:42:36;;;;;;;27.13;17.80;;;25.70;99.90;;;;;;5091908;28;20498;-68
2023/05/22 10:45:03;;;;;;;22.43;15.43;;;25.70;99.90;;;;;;5091711;28;20538;-70
2023/05/22 10:47:28;;;;;;;27.67;18.63;;;25.90;99.90;;;;;;5091804;28;20272;-68
2023/05/22 10:50:08;;;;;;;31.50;20.90;;;26.00;99.90;;;;;;5091690;28;20533;-68
2023/05/22 10:52:34;;;;;;;27.30;17.53;;;26.20;99.90;;;;;;5091652;28;20153;-68
2023/05/22 10:55:04;;;;;;;24.17;18.07;;;26.30;99.90;;;;;;5091640;28;20423;-67
2023/05/22 10:57:35;;;;;;;25.60;17.23;;;26.40;99.90;;;;;;5091333;28;20477;-68
2023/05/22 11:00:09;;;;;;;29.37;19.20;;;26.50;99.90;;;;;;5091652;28;20772;-69
2023/05/22 11:02:44;;;;;;;26.90;17.50;;;26.50;99.90;;;;;;5091649;28;20403;-69
2023/05/22 11:05:20;;;;;;;31.07;16.93;;;26.60;99.90;;;;;;5091584;28;20454;-69
2023/05/22 11:07:46;;;;;;;29.90;20.47;;;26.90;99.90;;;;;;5091331;28;20451;-69
2023/05/22 11:10:11;;;;;;;27.17;16.63;;;27.20;99.90;;;;;;5091520;28;20438;-69
2023/05/22 11:12:37;;;;;;;25.57;17.17;;;27.40;99.90;;;;;;5091338;28;20395;-69
2023/05/22 11:15:09;;;;;;;26.63;18.03;;;27.70;99.90;;;;;;5091432;28;20177;-69
2023/05/22 11:17:45;;;;;;;27.23;18.80;;;27.80;99.90;;;;;;5091041;28;20196;-70
2023/05/22 11:20:21;;;;;;;30.70;20.10;;;28.00;99.90;;;;;;5091499;28;20442;-70
2023/05/22 11:23:01;;;;;;;32.00;20.10;;;28.10;98.80;;;;;;5091367;28;20399;-70
2023/05/22 11:25:27;;;;;;;30.47;20.40;;;28.20;97.80;;;;;;5094607;28;20454;-69
2023/05/22 11:27:54;;;;;;;34.90;22.90;;;28.40;97.10;;;;;;5094696;28;20415;-70
2023/05/22 11:30:23;;;;;;;40.47;22.70;;;28.50;96.10;;;;;;5094955;28;20406;-70
2023/05/22 11:32:49;;;;;;;30.63;22.17;;;28.70;94.90;;;;;;5094897;28;20458;-70
2023/05/22 11:35:19;;;;;;;27.77;20.80;;;29.00;93.60;;;;;;5094845;28;20812;-70
2023/05/22 11:37:45;;;;;;;24.40;18.80;;;29.50;92.00;;;;;;5094561;28;20754;-70
2023/05/22 11:40:14;;;;;;;26.77;19.33;;;30.10;87.80;;;;;;5094751;28;20400;-70
2023/05/22 11:42:39;;;;;;;28.90;18.13;;;30.30;83.30;;;;;;5094699;28;20510;-70
2023/05/22 11:45:05;;;;;;;24.83;17.60;;;30.80;80.80;;;;;;5094513;28;20443;-70
2023/05/22 11:47:31;;;;;;;19.17;17.07;;;31.00;76.30;;;;;;5094493;28;20602;-70
2023/05/22 11:49:58;;;;;;;26.77;18.07;;;31.20;72.50;;;;;;5094908;28;20395;-70
2023/05/22 11:52:24;;;;;;;18.00;15.13;;;31.40;71.20;;;;;;5094517;28;20202;-70
2023/05/22 11:54:51;;;;;;;24.70;17.50;;;31.70;70.90;;;;;;5094489;28;20816;-70
2023/05/22 11:57:21;;;;;;;21.87;17.20;;;31.90;67.50;;;;;;5094108;28;20189;-69
2023/05/22 11:59:47;;;;;;;20.30;14.70;;;32.50;65.70;;;;;;5094373;28;20896;-70
2023/05/22 12:02:13;;;;;;;25.40;16.17;;;32.90;63.30;;;;;;5094369;28;20442;-70
2023/05/22 12:04:39;;;;;;;17.27;14.47;;;34.00;61.10;;;;;;5094510;28;20231;-70
2023/05/22 12:07:06;;;;;;;21.00;15.07;;;35.70;57.50;;;;;;5093881;28;20419;-67
2023/05/22 12:09:31;;;;;;;21.43;18.63;;;37.00;54.30;;;;;;5094042;28;20396;-68
2023/05/22 12:11:57;;;;;;;16.87;13.87;;;37.80;49.50;;;;;;5094182;28;20465;-69
2023/05/22 12:14:27;;;;;;;17.73;12.53;;;39.00;48.40;;;;;;5094068;28;20284;-69
2023/05/22 12:16:54;;;;;;;16.43;14.23;;;40.40;46.30;;;;;;5093855;28;20312;-68
2023/05/22 12:19:20;;;;;;;16.73;12.77;;;41.90;43.60;;;;;;5093798;28;20490;-68
2023/05/22 12:21:49;;;;;;;12.83;11.00;;;43.10;41.70;;;;;;5093912;28;20166;-68
2023/05/22 12:24:15;;;;;;;17.20;13.43;;;44.30;39.90;;;;;;5093794;28;20451;-69
2023/05/22 12:26:48;;;;;;;18.13;14.20;;;45.30;37.20;;;;;;5094099;28;20381;-69
2023/05/22 12:29:13;;;;;;;21.17;18.13;;;45.70;34.90;;;;;;5093901;28;20226;-69